createdAt,value
2019-04-21T00:00:54.191Z,9.70
2019-04-21T00:03:27.494Z,9.60
2019-04-21T00:06:15.671Z,9.50
2019-04-21T00:08:48.426Z,9.40
2019-04-21T00:11:15.259Z,9.30
2019-04-21T00:13:42.467Z,9.20
2019-04-21T00:16:05.127Z,9.20
2019-04-21T00:18:58.074Z,9.10
2019-04-21T00:21:30.179Z,9.00
2019-04-21T00:24:24.847Z,9.00
2019-04-21T00:27:02.488Z,8.90
2019-04-21T00:29:38.352Z,8.90
2019-04-21T00:32:03.021Z,8.90
2019-04-21T00:34:21.916Z,8.90
2019-04-21T00:37:05.014Z,9.00
2019-04-21T00:39:58.812Z,9.00
2019-04-21T00:42:14.158Z,9.10
2019-04-21T00:44:40.066Z,9.10
2019-04-21T00:47:25.502Z,9.10
2019-04-21T00:49:57.835Z,9.00
2019-04-21T00:52:48.833Z,8.90
2019-04-21T00:55:24.440Z,8.80
2019-04-21T00:57:45.775Z,8.80
2019-04-21T01:00:22.355Z,8.80
2019-04-21T01:02:56.546Z,8.70
2019-04-21T01:05:38.638Z,8.70
2019-04-21T01:08:13.341Z,8.60
2019-04-21T01:10:40.936Z,8.50
2019-04-21T01:13:21.599Z,8.40
2019-04-21T01:15:52.816Z,8.40
2019-04-21T01:18:29.513Z,8.30
2019-04-21T01:20:36.995Z,8.30
2019-04-21T01:23:06.469Z,8.20
2019-04-21T01:25:44.856Z,8.20
2019-04-21T01:28:27.176Z,8.10
2019-04-21T01:31:05.705Z,8.10
2019-04-21T01:33:38.023Z,8.10
2019-04-21T01:36:08.447Z,8.00
2019-04-21T01:41:17.969Z,8.00
2019-04-21T01:43:39.571Z,8.00
2019-04-21T01:46:14.157Z,7.90
2019-04-21T01:48:44.338Z,7.90
2019-04-21T01:51:17.110Z,7.80
2019-04-21T01:54:09.977Z,7.80
2019-04-21T01:56:57.029Z,7.80
2019-04-21T01:59:29.581Z,7.80
2019-04-21T02:02:05.274Z,7.80
2019-04-21T02:04:41.780Z,7.80
2019-04-21T02:07:13.001Z,7.80
2019-04-21T02:09:38.006Z,7.70
2019-04-21T02:12:17.169Z,7.60
2019-04-21T02:14:50.326Z,7.60
2019-04-21T02:17:16.425Z,7.60
2019-04-21T02:19:48.050Z,7.50
2019-04-21T02:22:28.716Z,7.50
2019-04-21T02:25:03.793Z,7.40
2019-04-21T02:27:31.079Z,7.40
2019-04-21T02:30:14.607Z,7.40
2019-04-21T02:32:48.376Z,7.40
2019-04-21T02:35:20.771Z,7.30
2019-04-21T02:37:55.653Z,7.30
2019-04-21T02:40:22.313Z,7.30
2019-04-21T02:42:56.101Z,7.30
2019-04-21T02:45:29.759Z,7.30
2019-04-21T02:50:31.755Z,7.30
2019-04-21T02:53:07.081Z,7.20
2019-04-21T02:55:31.285Z,7.20
2019-04-21T02:58:06.216Z,7.10
2019-04-21T03:00:56.973Z,7.10
2019-04-21T03:03:36.363Z,7.10
2019-04-21T03:06:15.384Z,7.10
2019-04-21T03:08:56.717Z,7.10
2019-04-21T03:11:14.629Z,7.10
2019-04-21T03:13:57.186Z,7.10
2019-04-21T03:16:26.548Z,7.00
2019-04-21T03:18:57.788Z,7.00
2019-04-21T03:21:29.064Z,7.00
2019-04-21T03:24:01.300Z,6.90
2019-04-21T03:26:36.628Z,6.80
2019-04-21T03:29:03.609Z,6.80
2019-04-21T03:32:05.563Z,6.80
2019-04-21T03:34:50.382Z,6.80
2019-04-21T03:39:11.874Z,6.70
2019-04-21T03:41:54.271Z,6.70
2019-04-21T03:44:24.677Z,6.70
2019-04-21T03:52:03.829Z,6.70
2019-04-21T03:54:39.179Z,6.60
2019-04-21T03:59:36.696Z,6.60
2019-04-21T04:02:39.026Z,6.50
2019-04-21T04:05:13.107Z,6.50
2019-04-21T04:10:22.903Z,6.40
2019-04-21T04:12:54.697Z,6.40
2019-04-21T04:15:32.335Z,6.30
2019-04-21T04:17:46.937Z,6.30
2019-04-21T04:22:56.246Z,6.30
2019-04-21T04:25:42.852Z,6.30
2019-04-21T04:33:12.426Z,6.30
2019-04-21T04:35:52.466Z,6.30
2019-04-21T04:38:20.124Z,6.30
2019-04-21T04:41:36.884Z,6.30
2019-04-21T04:43:44.755Z,6.30
2019-04-21T04:46:18.334Z,6.40
2019-04-21T04:48:51.379Z,6.50
2019-04-21T04:51:25.231Z,6.50
2019-04-21T04:53:46.898Z,6.70
2019-04-21T04:56:38.743Z,6.90
2019-04-21T05:01:32.732Z,7.30
2019-04-21T05:09:09.446Z,7.60
2019-04-21T05:11:46.401Z,7.70
2019-04-21T05:16:46.769Z,7.80
2019-04-21T05:19:20.183Z,8.00
2019-04-21T05:21:40.527Z,8.20
2019-04-21T05:24:02.638Z,8.30
2019-04-21T05:26:33.383Z,8.40
2019-04-21T05:29:01.894Z,8.60
2019-04-21T05:34:42.634Z,8.90
2019-04-21T05:37:33.221Z,9.00
2019-04-21T05:40:10.587Z,9.20
2019-04-21T05:42:44.440Z,9.40
2019-04-21T05:45:18.537Z,9.50
2019-04-21T05:48:17.820Z,9.50
2019-04-21T05:50:42.902Z,9.70
2019-04-21T05:53:20.011Z,9.80
2019-04-21T05:55:54.570Z,10.00
2019-04-21T05:58:14.963Z,10.10
2019-04-21T06:03:42.730Z,10.30
2019-04-21T06:06:10.064Z,10.40
2019-04-21T06:08:31.370Z,10.40
2019-04-21T06:11:07.368Z,10.40
2019-04-21T06:13:48.164Z,10.50
2019-04-21T06:16:30.270Z,10.60
2019-04-21T06:18:52.951Z,10.60
2019-04-21T06:21:16.469Z,10.70
2019-04-21T06:23:49.641Z,10.80
2019-04-21T06:26:51.810Z,11.00
2019-04-21T06:28:59.314Z,11.10
2019-04-21T06:34:04.657Z,11.30
2019-04-21T06:36:47.107Z,11.50
2019-04-21T06:39:42.682Z,11.60
2019-04-21T06:41:49.107Z,11.70
2019-04-21T06:44:22.437Z,11.90
2019-04-21T06:46:53.226Z,12.00
2019-04-21T06:49:27.473Z,12.10
2019-04-21T06:51:59.976Z,12.30
2019-04-21T06:54:35.632Z,12.50
2019-04-21T06:57:04.911Z,12.60
2019-04-21T06:59:31.912Z,12.80
2019-04-21T07:02:31.439Z,12.90
2019-04-21T07:04:47.009Z,13.10
2019-04-21T07:07:15.915Z,13.30
2019-04-21T07:09:52.573Z,13.60
2019-04-21T07:12:18.593Z,13.70
2019-04-21T07:14:54.709Z,13.80
2019-04-21T07:17:33.627Z,14.00
2019-04-21T07:20:00.135Z,14.20
2019-04-21T07:22:31.106Z,14.30
2019-04-21T07:25:03.014Z,14.40
2019-04-21T07:30:06.750Z,14.70
2019-04-21T07:32:33.418Z,14.80
2019-04-21T07:35:17.501Z,14.90
2019-04-21T07:37:41.384Z,15.00
2019-04-21T07:40:05.189Z,15.10
2019-04-21T07:42:38.513Z,15.30
2019-04-21T07:45:07.294Z,15.40
2019-04-21T07:47:51.785Z,15.50
2019-04-21T07:50:26.347Z,15.60
2019-04-21T07:53:24.348Z,15.70
2019-04-21T07:58:22.504Z,16.00
2019-04-21T08:00:56.381Z,16.20
2019-04-21T08:03:30.049Z,16.30
2019-04-21T08:05:59.083Z,16.40
2019-04-21T08:08:31.403Z,16.60
2019-04-21T08:11:07.349Z,16.70
2019-04-21T08:16:10.989Z,17.10
2019-04-21T08:18:39.717Z,17.10
2019-04-21T08:21:17.184Z,17.20
2019-04-21T08:23:41.604Z,17.30
2019-04-21T08:26:17.086Z,17.40
2019-04-21T08:28:46.708Z,17.50
2019-04-21T08:31:23.986Z,17.60
2019-04-21T08:36:28.413Z,17.80
2019-04-21T08:38:54.432Z,18.00
2019-04-21T08:41:25.059Z,18.10
2019-04-21T08:43:59.001Z,18.20
2019-04-21T08:46:31.191Z,18.30
2019-04-21T08:49:02.530Z,18.40
2019-04-21T08:51:33.320Z,18.50
2019-04-21T08:54:13.420Z,18.50
2019-04-21T08:57:06.147Z,18.50
2019-04-21T08:59:55.218Z,18.60
2019-04-21T09:02:40.289Z,18.80
2019-04-21T09:05:15.404Z,19.00
2019-04-21T09:07:49.554Z,19.10
2019-04-21T09:10:17.306Z,19.20
2019-04-21T09:12:53.570Z,19.30
2019-04-21T09:15:30.032Z,19.40
2019-04-21T09:17:48.375Z,19.40
2019-04-21T09:20:26.449Z,19.50
2019-04-21T09:23:02.221Z,19.60
2019-04-21T09:25:33.527Z,19.70
2019-04-21T09:28:01.281Z,19.80
2019-04-21T09:30:17.465Z,19.90
2019-04-21T09:32:49.422Z,20.00
2019-04-21T09:35:22.276Z,20.10
2019-04-21T09:38:26.237Z,20.20
2019-04-21T09:40:45.466Z,20.20
2019-04-21T09:43:13.368Z,20.30
2019-04-21T09:45:43.091Z,20.30
2019-04-21T09:48:18.595Z,20.50
2019-04-21T09:50:45.877Z,20.50
2019-04-21T09:53:25.173Z,20.60
2019-04-21T09:55:53.635Z,20.80
2019-04-21T09:58:26.345Z,20.80
2019-04-21T10:01:01.185Z,20.80
2019-04-21T10:03:23.120Z,21.00
2019-04-21T10:05:52.553Z,21.00
2019-04-21T10:08:22.917Z,21.20
2019-04-21T10:10:54.777Z,21.20
2019-04-21T10:13:25.334Z,21.30
2019-04-21T10:16:13.248Z,21.30
2019-04-21T10:18:43.801Z,21.40
2019-04-21T10:21:15.509Z,21.50
2019-04-21T10:23:45.669Z,21.70
2019-04-21T10:26:15.190Z,21.70
2019-04-21T10:28:44.506Z,21.80
2019-04-21T10:31:14.425Z,21.90
2019-04-21T10:33:44.275Z,21.80
2019-04-21T10:36:15.696Z,21.90
2019-04-21T10:38:51.287Z,22.00
2019-04-21T10:41:17.262Z,22.10
2019-04-21T10:43:47.104Z,22.20
2019-04-21T10:46:16.993Z,22.20
2019-04-21T10:48:48.742Z,22.10
2019-04-21T10:51:19.026Z,22.20
2019-04-21T10:53:52.351Z,22.30
2019-04-21T10:56:29.032Z,22.30
2019-04-21T10:58:54.040Z,22.30
2019-04-21T11:01:29.370Z,22.40
2019-04-21T11:04:07.518Z,22.50
2019-04-21T11:06:36.857Z,22.60
2019-04-21T11:09:10.704Z,22.60
2019-04-21T11:11:44.220Z,22.50
2019-04-21T11:14:11.644Z,22.50
2019-04-21T11:16:42.789Z,22.40
2019-04-21T11:19:12.085Z,22.40
2019-04-21T11:21:42.799Z,22.40
2019-04-21T11:24:12.399Z,22.40
2019-04-21T11:26:42.211Z,22.40
2019-04-21T11:29:12.852Z,22.40
2019-04-21T11:31:43.160Z,22.50
2019-04-21T11:34:13.484Z,22.50
2019-04-21T11:36:43.915Z,22.60
2019-04-21T11:39:35.069Z,22.60
2019-04-21T11:41:55.106Z,22.70
2019-04-21T11:44:24.860Z,22.80
2019-04-21T11:46:54.491Z,22.90
2019-04-21T11:49:27.647Z,23.00
2019-04-21T11:51:56.727Z,23.00
2019-04-21T11:54:26.801Z,22.90
2019-04-21T11:56:56.934Z,22.80
2019-04-21T11:59:27.882Z,22.90
2019-04-21T12:01:59.356Z,22.90
2019-04-21T12:04:29.551Z,22.90
2019-04-21T12:07:01.883Z,23.00
2019-04-21T12:09:35.889Z,23.20
2019-04-21T12:12:05.547Z,23.20
2019-04-21T12:14:36.260Z,23.30
2019-04-21T12:17:05.915Z,23.30
2019-04-21T12:19:36.626Z,23.40
2019-04-21T12:22:14.099Z,23.30
2019-04-21T12:24:38.383Z,23.30
2019-04-21T12:27:09.855Z,23.20
2019-04-21T12:29:41.877Z,23.20
2019-04-21T12:32:33.828Z,23.20
2019-04-21T12:35:03.874Z,23.20
2019-04-21T12:37:34.995Z,23.20
2019-04-21T12:40:06.351Z,23.20
2019-04-21T12:42:38.731Z,23.20
2019-04-21T12:45:09.648Z,23.20
2019-04-21T12:47:39.788Z,23.30
2019-04-21T12:50:11.240Z,23.40
2019-04-21T12:52:41.945Z,23.40
2019-04-21T12:55:13.541Z,23.60
2019-04-21T12:57:43.553Z,23.70
2019-04-21T13:00:15.895Z,23.70
2019-04-21T13:02:45.577Z,23.70
2019-04-21T13:05:15.821Z,23.80
2019-04-21T13:07:45.894Z,23.70
2019-04-21T13:10:18.048Z,23.80
2019-04-21T13:12:48.041Z,23.90
2019-04-21T13:15:17.945Z,24.00
2019-04-21T13:17:47.713Z,24.00
2019-04-21T13:20:17.231Z,24.00
2019-04-21T13:22:48.079Z,24.10
2019-04-21T13:25:19.993Z,24.20
2019-04-21T13:27:49.497Z,24.30
2019-04-21T13:30:20.145Z,24.30
2019-04-21T13:32:49.538Z,24.30
2019-04-21T13:35:19.103Z,24.30
2019-04-21T13:37:50.554Z,24.30
2019-04-21T13:40:49.389Z,24.40
2019-04-21T13:43:08.092Z,24.40
2019-04-21T13:45:37.386Z,24.40
2019-04-21T13:48:16.653Z,24.40
2019-04-21T13:50:47.096Z,24.40
2019-04-21T13:53:20.907Z,24.60
2019-04-21T13:55:50.826Z,24.50
2019-04-21T13:58:42.252Z,24.60
2019-04-21T14:01:11.839Z,24.50
2019-04-21T14:03:41.771Z,24.50
2019-04-21T14:06:12.139Z,24.50
2019-04-21T14:08:44.920Z,24.40
2019-04-21T14:11:15.505Z,24.30
2019-04-21T14:13:44.919Z,24.40
2019-04-21T14:16:24.837Z,24.50
2019-04-21T14:18:55.150Z,24.60
2019-04-21T14:21:25.100Z,24.60
2019-04-21T14:24:06.701Z,24.60
2019-04-21T14:26:36.343Z,24.60
2019-04-21T14:29:06.062Z,24.50
2019-04-21T14:31:35.393Z,24.50
2019-04-21T14:34:06.052Z,24.50
2019-04-21T14:36:36.933Z,24.40
2019-04-21T14:39:12.425Z,24.50
2019-04-21T14:41:42.285Z,24.50
2019-04-21T14:44:13.096Z,24.50
2019-04-21T14:47:09.309Z,24.50
2019-04-21T14:49:59.436Z,24.60
2019-04-21T14:52:32.997Z,24.70
2019-04-21T14:55:16.660Z,24.70
2019-04-21T14:57:47.305Z,24.80
2019-04-21T15:00:19.027Z,24.70
2019-04-21T15:02:49.625Z,24.70
2019-04-21T15:05:19.768Z,24.60
2019-04-21T15:07:49.290Z,24.60
2019-04-21T15:10:23.573Z,24.70
2019-04-21T15:12:49.891Z,24.80
2019-04-21T15:15:20.140Z,24.80
2019-04-21T15:17:49.695Z,24.80
2019-04-21T15:20:20.135Z,24.80
2019-04-21T15:22:50.459Z,24.80
2019-04-21T15:25:21.993Z,24.80
2019-04-21T15:27:52.756Z,24.90
2019-04-21T15:30:22.685Z,24.90
2019-04-21T15:32:52.783Z,25.00
2019-04-21T15:35:22.190Z,25.00
2019-04-21T15:37:58.036Z,25.00
2019-04-21T15:40:37.472Z,25.00
2019-04-21T15:42:58.596Z,25.00
2019-04-21T15:45:30.503Z,24.90
2019-04-21T15:48:00.218Z,24.80
2019-04-21T15:50:32.365Z,24.80
2019-04-21T15:53:05.617Z,24.80
2019-04-21T15:55:48.605Z,24.80
2019-04-21T15:58:40.916Z,24.70
2019-04-21T16:01:18.656Z,24.80
2019-04-21T16:03:49.004Z,24.70
2019-04-21T16:06:19.422Z,24.60
2019-04-21T16:08:52.332Z,24.60
2019-04-21T16:11:20.044Z,24.60
2019-04-21T16:13:49.829Z,24.50
2019-04-21T16:16:20.185Z,24.60
2019-04-21T16:18:50.104Z,24.50
2019-04-21T16:21:19.841Z,24.50
2019-04-21T16:23:50.639Z,24.40
2019-04-21T16:26:20.388Z,24.40
2019-04-21T16:28:50.858Z,24.30
2019-04-21T16:31:22.514Z,24.30
2019-04-21T16:33:52.028Z,24.30
2019-04-21T16:36:21.382Z,24.20
2019-04-21T16:38:51.446Z,24.20
2019-04-21T16:41:22.320Z,24.20
2019-04-21T16:43:53.152Z,24.10
2019-04-21T16:46:23.268Z,24.00
2019-04-21T16:48:55.971Z,23.90
2019-04-21T16:51:26.411Z,23.90
2019-04-21T16:54:08.177Z,23.90
2019-04-21T16:56:46.002Z,23.90
2019-04-21T16:59:32.871Z,23.90
2019-04-21T17:02:04.815Z,23.90
2019-04-21T17:04:34.251Z,23.90
2019-04-21T17:07:05.068Z,23.90
2019-04-21T17:09:34.761Z,23.90
2019-04-21T17:12:09.664Z,23.80
2019-04-21T17:14:53.123Z,23.80
2019-04-21T17:17:34.148Z,23.70
2019-04-21T17:19:45.601Z,23.70
2019-04-21T17:22:13.640Z,23.70
2019-04-21T17:24:46.386Z,23.60
2019-04-21T17:27:17.421Z,23.70
2019-04-21T17:29:48.510Z,23.80
2019-04-21T17:32:18.394Z,23.90
2019-04-21T17:34:50.062Z,23.90
2019-04-21T17:37:22.031Z,24.00
2019-04-21T17:39:52.577Z,24.10
2019-04-21T17:42:31.344Z,24.10
2019-04-21T17:44:55.224Z,24.10
2019-04-21T17:47:36.996Z,23.90
2019-04-21T17:50:15.690Z,23.60
2019-04-21T17:52:59.034Z,23.10
2019-04-21T17:55:29.807Z,22.70
2019-04-21T17:58:12.199Z,22.40
2019-04-21T18:03:35.315Z,21.90
2019-04-21T18:05:50.224Z,21.80
2019-04-21T18:08:33.915Z,21.70
2019-04-21T18:10:49.468Z,21.50
2019-04-21T18:13:17.270Z,21.30
2019-04-21T18:15:56.739Z,21.10
2019-04-21T18:18:14.514Z,20.90
2019-04-21T18:20:46.153Z,20.80
2019-04-21T18:23:46.059Z,20.70
2019-04-21T18:26:11.462Z,20.50
2019-04-21T18:28:35.168Z,20.30
2019-04-21T18:31:10.170Z,20.20
2019-04-21T18:33:45.744Z,20.00
2019-04-21T18:36:40.133Z,19.80
2019-04-21T18:39:46.108Z,19.70
2019-04-21T18:42:26.613Z,19.50
2019-04-21T18:48:02.459Z,19.30
2019-04-21T18:51:02.498Z,19.10
2019-04-21T18:53:46.546Z,19.10
2019-04-21T18:56:07.652Z,19.00
2019-04-21T18:58:33.920Z,19.00
2019-04-21T19:01:11.860Z,18.90
2019-04-21T19:03:41.052Z,18.70
2019-04-21T19:06:11.497Z,18.60
2019-04-21T19:08:59.749Z,18.50
2019-04-21T19:11:31.258Z,18.40
2019-04-21T19:17:11.010Z,18.20
2019-04-21T19:20:00.852Z,18.10
2019-04-21T19:22:29.398Z,18.00
2019-04-21T19:25:13.152Z,17.90
2019-04-21T19:27:45.589Z,17.90
2019-04-21T19:33:03.944Z,17.70
2019-04-21T19:35:19.254Z,17.60
2019-04-21T19:37:56.491Z,17.50
2019-04-21T19:40:38.676Z,17.40
2019-04-21T19:42:57.895Z,17.30
2019-04-21T19:45:35.493Z,17.20
2019-04-21T19:48:15.325Z,17.10
2019-04-21T19:50:48.454Z,17.00
2019-04-21T19:53:05.284Z,17.00
2019-04-21T19:55:27.862Z,16.90
2019-04-21T19:57:58.843Z,16.80
2019-04-21T20:00:30.557Z,16.70
2019-04-21T20:03:00.822Z,16.70
2019-04-21T20:05:40.968Z,16.60
2019-04-21T20:08:17.705Z,16.60
2019-04-21T20:10:55.301Z,16.40
2019-04-21T20:13:35.332Z,16.40
2019-04-21T20:15:56.681Z,16.30
2019-04-21T20:18:22.333Z,16.30
2019-04-21T20:20:41.314Z,16.30
2019-04-21T20:23:19.308Z,16.30
2019-04-21T20:25:48.805Z,16.20
2019-04-21T20:28:28.734Z,16.20
2019-04-21T20:31:03.834Z,16.10
2019-04-21T20:33:48.490Z,16.10
2019-04-21T20:36:12.026Z,16.00
2019-04-21T20:38:32.725Z,15.90
2019-04-21T20:40:59.195Z,15.90
2019-04-21T20:43:42.632Z,15.90
2019-04-21T20:46:10.305Z,15.80
2019-04-21T20:48:40.101Z,15.80
2019-04-21T20:51:18.345Z,15.80
2019-04-21T20:53:45.193Z,15.70
2019-04-21T20:56:11.413Z,15.70
2019-04-21T20:58:53.767Z,15.70
2019-04-21T21:01:39.308Z,15.60
2019-04-21T21:03:56.030Z,15.50
2019-04-21T21:06:26.178Z,15.40
2019-04-21T21:09:00.022Z,15.30
2019-04-21T21:11:35.296Z,15.30
2019-04-21T21:14:07.535Z,15.30
2019-04-21T21:16:44.893Z,15.20
2019-04-21T21:19:18.231Z,15.20
2019-04-21T21:21:34.126Z,15.10
2019-04-21T21:24:08.718Z,15.10
2019-04-21T21:26:47.233Z,15.00
2019-04-21T21:29:11.618Z,15.00
2019-04-21T21:31:49.140Z,15.00
2019-04-21T21:34:20.939Z,15.00
2019-04-21T21:36:51.080Z,14.90
2019-04-21T21:39:15.668Z,14.90
2019-04-21T21:41:40.587Z,14.80
2019-04-21T21:44:09.217Z,14.80
2019-04-21T21:46:50.964Z,14.80
2019-04-21T21:49:23.695Z,14.70
2019-04-21T21:51:51.973Z,14.60
2019-04-21T21:54:11.709Z,14.50
2019-04-21T21:56:42.565Z,14.60
2019-04-21T21:59:20.092Z,14.50
2019-04-21T22:01:51.922Z,14.50
2019-04-21T22:04:25.947Z,14.40
2019-04-21T22:06:55.447Z,14.40
2019-04-21T22:09:22.397Z,14.30
2019-04-21T22:11:56.250Z,14.30
2019-04-21T22:14:31.349Z,14.30
2019-04-21T22:17:10.686Z,14.20
2019-04-21T22:19:48.575Z,14.20
2019-04-21T22:22:14.148Z,14.10
2019-04-21T22:24:43.947Z,14.00
2019-04-21T22:26:59.214Z,13.90
2019-04-21T22:29:36.348Z,13.80
2019-04-21T22:32:08.846Z,13.80
2019-04-21T22:34:39.797Z,13.80
2019-04-21T22:37:21.219Z,13.70
2019-04-21T22:39:49.676Z,13.60
2019-04-21T22:42:15.360Z,13.60
2019-04-21T22:44:36.810Z,13.50
2019-04-21T22:47:14.131Z,13.40
2019-04-21T22:49:39.283Z,13.30
2019-04-21T22:52:15.218Z,13.30
2019-04-21T22:54:43.199Z,13.30
2019-04-21T22:57:16.626Z,13.30
2019-04-21T22:59:47.884Z,13.30
2019-04-21T23:02:22.587Z,13.20
2019-04-21T23:04:54.945Z,13.20
2019-04-21T23:07:24.276Z,13.10
2019-04-21T23:09:53.530Z,13.00
2019-04-21T23:12:28.262Z,13.00
2019-04-21T23:15:03.407Z,13.00
2019-04-21T23:17:48.268Z,12.90
2019-04-21T23:20:18.135Z,13.00
2019-04-21T23:22:55.329Z,13.00
2019-04-21T23:25:18.689Z,13.00
2019-04-21T23:27:47.982Z,13.00
2019-04-21T23:30:26.270Z,12.90
2019-04-21T23:32:42.207Z,12.90
2019-04-21T23:35:16.911Z,12.90
2019-04-21T23:37:44.903Z,12.90
2019-04-21T23:40:14.779Z,12.80
2019-04-21T23:42:42.412Z,12.80
2019-04-21T23:45:12.479Z,12.70
2019-04-21T23:47:53.548Z,12.60
2019-04-21T23:50:25.325Z,12.60
2019-04-21T23:52:45.658Z,12.60
2019-04-21T23:55:19.001Z,12.60
2019-04-21T23:57:50.183Z,12.50
